sensor_id;sensor_type;location;lat;lon;timestamp;temperature;humidity
25154;DHT22;47555;51.038;6.280;2023-01-19T00:00:05;1.60;99.90
25154;DHT22;47555;51.038;6.280;2023-01-19T00:02:33;1.50;99.90
25154;DHT22;47555;51.038;6.280;2023-01-19T00:04:58;1.50;99.90
25154;DHT22;47555;51.038;6.280;2023-01-19T00:07:25;1.50;99.90
25154;DHT22;47555;51.038;6.280;2023-01-19T00:09:51;1.50;99.90
25154;DHT22;47555;51.038;6.280;2023-01-19T00:12:16;1.50;99.90
25154;DHT22;47555;51.038;6.280;2023-01-19T00:14:42;1.50;99.90
25154;DHT22;47555;51.038;6.280;2023-01-19T00:17:07;1.50;99.90
25154;DHT22;47555;51.038;6.280;2023-01-19T00:19:33;1.50;99.90
25154;DHT22;47555;51.038;6.280;2023-01-19T00:21:58;1.50;99.90
25154;DHT22;47555;51.038;6.280;2023-01-19T00:24:24;1.50;99.90
25154;DHT22;47555;51.038;6.280;2023-01-19T00:26:49;1.50;99.90
25154;DHT22;47555;51.038;6.280;2023-01-19T00:29:15;1.50;99.90
25154;DHT22;47555;51.038;6.280;2023-01-19T00:31:40;1.50;99.90
25154;DHT22;47555;51.038;6.280;2023-01-19T00:34:06;1.60;99.90
25154;DHT22;47555;51.038;6.280;2023-01-19T00:36:32;1.50;99.90
25154;DHT22;47555;51.038;6.280;2023-01-19T00:38:58;1.50;99.90
25154;DHT22;47555;51.038;6.280;2023-01-19T00:41:24;1.50;99.90
25154;DHT22;47555;51.038;6.280;2023-01-19T00:44:10;1.50;99.90
25154;DHT22;47555;51.038;6.280;2023-01-19T00:46:36;1.40;99.90
25154;DHT22;47555;51.038;6.280;2023-01-19T00:49:01;1.40;99.90
25154;DHT22;47555;51.038;6.280;2023-01-19T00:51:27;1.40;99.90
25154;DHT22;47555;51.038;6.280;2023-01-19T00:53:52;1.40;99.90
25154;DHT22;47555;51.038;6.280;2023-01-19T00:56:18;1.40;99.90
25154;DHT22;47555;51.038;6.280;2023-01-19T00:58:43;1.40;99.90
25154;DHT22;47555;51.038;6.280;2023-01-19T01:01:13;1.40;99.90
25154;DHT22;47555;51.038;6.280;2023-01-19T01:03:38;1.40;99.90
25154;DHT22;47555;51.038;6.280;2023-01-19T01:06:04;1.40;99.90
25154;DHT22;47555;51.038;6.280;2023-01-19T01:08:32;1.40;99.90
25154;DHT22;47555;51.038;6.280;2023-01-19T01:10:58;1.40;99.90
25154;DHT22;47555;51.038;6.280;2023-01-19T01:13:23;1.40;99.90
25154;DHT22;47555;51.038;6.280;2023-01-19T01:15:50;1.40;99.90
25154;DHT22;47555;51.038;6.280;2023-01-19T01:18:16;1.40;99.90
25154;DHT22;47555;51.038;6.280;2023-01-19T01:20:41;1.40;99.90
25154;DHT22;47555;51.038;6.280;2023-01-19T01:23:07;1.40;99.90
25154;DHT22;47555;51.038;6.280;2023-01-19T01:25:33;1.40;99.90
25154;DHT22;47555;51.038;6.280;2023-01-19T01:28:05;1.40;99.90
25154;DHT22;47555;51.038;6.280;2023-01-19T01:30:35;1.40;99.90
25154;DHT22;47555;51.038;6.280;2023-01-19T01:33:06;1.40;99.90
25154;DHT22;47555;51.038;6.280;2023-01-19T01:35:31;1.40;99.90
25154;DHT22;47555;51.038;6.280;2023-01-19T01:37:58;1.40;99.90
25154;DHT22;47555;51.038;6.280;2023-01-19T01:40:24;1.40;99.90
25154;DHT22;47555;51.038;6.280;2023-01-19T01:42:50;1.30;99.90
25154;DHT22;47555;51.038;6.280;2023-01-19T01:47:54;1.40;99.90
25154;DHT22;47555;51.038;6.280;2023-01-19T01:50:24;1.40;99.90
25154;DHT22;47555;51.038;6.280;2023-01-19T01:55:21;1.40;99.90
25154;DHT22;47555;51.038;6.280;2023-01-19T01:57:55;1.40;99.90
25154;DHT22;47555;51.038;6.280;2023-01-19T02:00:22;1.40;99.90
25154;DHT22;47555;51.038;6.280;2023-01-19T02:02:48;1.40;99.90
25154;DHT22;47555;51.038;6.280;2023-01-19T02:05:20;1.40;99.90
25154;DHT22;47555;51.038;6.280;2023-01-19T02:08:09;1.40;99.90
25154;DHT22;47555;51.038;6.280;2023-01-19T02:10:55;1.40;99.90
25154;DHT22;47555;51.038;6.280;2023-01-19T02:13:40;1.40;99.90
25154;DHT22;47555;51.038;6.280;2023-01-19T02:16:12;1.30;99.90
25154;DHT22;47555;51.038;6.280;2023-01-19T02:18:38;1.40;99.90
25154;DHT22;47555;51.038;6.280;2023-01-19T02:23:55;1.40;99.90
25154;DHT22;47555;51.038;6.280;2023-01-19T02:26:37;1.40;99.90
25154;DHT22;47555;51.038;6.280;2023-01-19T02:29:06;1.40;99.90
25154;DHT22;47555;51.038;6.280;2023-01-19T02:31:34;1.40;99.90
25154;DHT22;47555;51.038;6.280;2023-01-19T02:34:01;1.40;99.90
25154;DHT22;47555;51.038;6.280;2023-01-19T02:36:37;1.50;99.90
25154;DHT22;47555;51.038;6.280;2023-01-19T02:39:06;1.50;99.90
25154;DHT22;47555;51.038;6.280;2023-01-19T02:41:42;1.50;99.90
25154;DHT22;47555;51.038;6.280;2023-01-19T02:44:09;1.50;99.90
25154;DHT22;47555;51.038;6.280;2023-01-19T02:46:37;1.50;99.90
25154;DHT22;47555;51.038;6.280;2023-01-19T02:49:02;1.60;99.90
25154;DHT22;47555;51.038;6.280;2023-01-19T02:51:28;1.50;99.90
25154;DHT22;47555;51.038;6.280;2023-01-19T02:56:43;1.60;99.90
25154;DHT22;47555;51.038;6.280;2023-01-19T02:59:44;1.60;99.90
25154;DHT22;47555;51.038;6.280;2023-01-19T03:05:08;1.60;99.90
25154;DHT22;47555;51.038;6.280;2023-01-19T03:08:02;1.60;99.90
25154;DHT22;47555;51.038;6.280;2023-01-19T03:11:02;1.60;99.70
25154;DHT22;47555;51.038;6.280;2023-01-19T03:16:23;1.60;99.90
25154;DHT22;47555;51.038;6.280;2023-01-19T03:18:55;1.60;99.90
25154;DHT22;47555;51.038;6.280;2023-01-19T03:21:25;1.70;99.90
25154;DHT22;47555;51.038;6.280;2023-01-19T03:23:53;1.70;99.90
25154;DHT22;47555;51.038;6.280;2023-01-19T03:26:24;1.70;99.90
25154;DHT22;47555;51.038;6.280;2023-01-19T03:28:51;1.70;99.80
25154;DHT22;47555;51.038;6.280;2023-01-19T03:31:23;1.80;99.70
25154;DHT22;47555;51.038;6.280;2023-01-19T03:33:54;1.80;99.60
25154;DHT22;47555;51.038;6.280;2023-01-19T03:36:42;1.80;99.40
25154;DHT22;47555;51.038;6.280;2023-01-19T03:39:09;1.90;99.20
25154;DHT22;47555;51.038;6.280;2023-01-19T03:41:38;1.80;98.90
25154;DHT22;47555;51.038;6.280;2023-01-19T03:44:06;1.90;98.80
25154;DHT22;47555;51.038;6.280;2023-01-19T03:46:32;2.00;98.40
25154;DHT22;47555;51.038;6.280;2023-01-19T03:48:59;2.00;98.40
25154;DHT22;47555;51.038;6.280;2023-01-19T03:51:25;2.00;98.00
25154;DHT22;47555;51.038;6.280;2023-01-19T03:53:51;2.00;98.10
25154;DHT22;47555;51.038;6.280;2023-01-19T03:56:19;2.00;98.50
25154;DHT22;47555;51.038;6.280;2023-01-19T03:58:45;2.00;98.30
25154;DHT22;47555;51.038;6.280;2023-01-19T04:01:12;2.10;98.40
25154;DHT22;47555;51.038;6.280;2023-01-19T04:03:37;2.00;98.40
25154;DHT22;47555;51.038;6.280;2023-01-19T04:06:03;2.00;98.20
25154;DHT22;47555;51.038;6.280;2023-01-19T04:08:29;2.10;98.10
25154;DHT22;47555;51.038;6.280;2023-01-19T04:10:56;2.10;98.00
25154;DHT22;47555;51.038;6.280;2023-01-19T04:13:22;2.10;98.00
25154;DHT22;47555;51.038;6.280;2023-01-19T04:15:47;2.20;97.80
25154;DHT22;47555;51.038;6.280;2023-01-19T04:18:13;2.20;98.10
25154;DHT22;47555;51.038;6.280;2023-01-19T04:20:39;2.20;97.70
25154;DHT22;47555;51.038;6.280;2023-01-19T04:23:04;2.20;97.90
25154;DHT22;47555;51.038;6.280;2023-01-19T04:25:30;2.20;98.30
25154;DHT22;47555;51.038;6.280;2023-01-19T04:27:55;2.20;98.40
25154;DHT22;47555;51.038;6.280;2023-01-19T04:30:24;2.20;98.60
25154;DHT22;47555;51.038;6.280;2023-01-19T04:32:50;2.20;98.60
25154;DHT22;47555;51.038;6.280;2023-01-19T04:35:16;2.20;98.70
25154;DHT22;47555;51.038;6.280;2023-01-19T04:37:41;2.20;99.00
25154;DHT22;47555;51.038;6.280;2023-01-19T04:40:08;2.20;99.70
25154;DHT22;47555;51.038;6.280;2023-01-19T04:42:33;2.20;99.90
25154;DHT22;47555;51.038;6.280;2023-01-19T04:44:59;2.20;99.90
25154;DHT22;47555;51.038;6.280;2023-01-19T04:47:24;2.20;99.90
25154;DHT22;47555;51.038;6.280;2023-01-19T04:49:50;2.20;99.90
25154;DHT22;47555;51.038;6.280;2023-01-19T04:52:16;2.10;99.90
25154;DHT22;47555;51.038;6.280;2023-01-19T04:54:41;2.10;99.90
25154;DHT22;47555;51.038;6.280;2023-01-19T04:57:07;2.00;99.90
25154;DHT22;47555;51.038;6.280;2023-01-19T04:59:32;2.00;99.90
25154;DHT22;47555;51.038;6.280;2023-01-19T05:01:58;2.00;99.90
25154;DHT22;47555;51.038;6.280;2023-01-19T05:04:23;1.90;99.90
25154;DHT22;47555;51.038;6.280;2023-01-19T05:06:50;1.90;99.90
25154;DHT22;47555;51.038;6.280;2023-01-19T05:09:16;1.80;99.90
25154;DHT22;47555;51.038;6.280;2023-01-19T05:11:41;1.80;99.90
25154;DHT22;47555;51.038;6.280;2023-01-19T05:14:07;1.70;99.90
25154;DHT22;47555;51.038;6.280;2023-01-19T05:16:33;1.70;99.90
25154;DHT22;47555;51.038;6.280;2023-01-19T05:18:59;1.60;99.90
25154;DHT22;47555;51.038;6.280;2023-01-19T05:21:24;1.50;99.90
25154;DHT22;47555;51.038;6.280;2023-01-19T05:23:50;1.50;99.90
25154;DHT22;47555;51.038;6.280;2023-01-19T05:26:15;1.40;99.90
25154;DHT22;47555;51.038;6.280;2023-01-19T05:28:41;1.30;99.90
25154;DHT22;47555;51.038;6.280;2023-01-19T05:31:07;1.30;99.90
25154;DHT22;47555;51.038;6.280;2023-01-19T05:33:32;1.20;99.90
25154;DHT22;47555;51.038;6.280;2023-01-19T05:35:58;1.10;99.90
25154;DHT22;47555;51.038;6.280;2023-01-19T05:38:23;1.10;99.90
25154;DHT22;47555;51.038;6.280;2023-01-19T05:40:54;1.00;99.90
25154;DHT22;47555;51.038;6.280;2023-01-19T05:43:20;1.00;99.90
25154;DHT22;47555;51.038;6.280;2023-01-19T05:45:45;0.90;99.90
25154;DHT22;47555;51.038;6.280;2023-01-19T05:48:11;0.90;99.90
25154;DHT22;47555;51.038;6.280;2023-01-19T05:50:36;1.00;99.90
25154;DHT22;47555;51.038;6.280;2023-01-19T05:53:02;0.90;99.90
25154;DHT22;47555;51.038;6.280;2023-01-19T05:55:28;0.90;99.90
25154;DHT22;47555;51.038;6.280;2023-01-19T05:57:53;0.90;99.90
25154;DHT22;47555;51.038;6.280;2023-01-19T06:00:19;0.90;99.90
25154;DHT22;47555;51.038;6.280;2023-01-19T06:02:45;0.90;99.90
25154;DHT22;47555;51.038;6.280;2023-01-19T06:05:13;0.90;99.90
25154;DHT22;47555;51.038;6.280;2023-01-19T06:07:39;0.90;99.90
25154;DHT22;47555;51.038;6.280;2023-01-19T06:10:05;0.90;99.90
25154;DHT22;47555;51.038;6.280;2023-01-19T06:12:31;0.90;99.90
25154;DHT22;47555;51.038;6.280;2023-01-19T06:14:57;0.90;99.90
25154;DHT22;47555;51.038;6.280;2023-01-19T06:17:22;0.90;99.90
25154;DHT22;47555;51.038;6.280;2023-01-19T06:19:48;0.80;99.90
25154;DHT22;47555;51.038;6.280;2023-01-19T06:22:14;0.90;99.90
25154;DHT22;47555;51.038;6.280;2023-01-19T06:24:39;0.80;99.90
25154;DHT22;47555;51.038;6.280;2023-01-19T06:27:05;0.90;99.90
25154;DHT22;47555;51.038;6.280;2023-01-19T06:29:31;0.90;99.90
25154;DHT22;47555;51.038;6.280;2023-01-19T06:31:56;0.90;99.90
25154;DHT22;47555;51.038;6.280;2023-01-19T06:34:22;0.90;99.90
25154;DHT22;47555;51.038;6.280;2023-01-19T06:36:51;0.80;99.90
25154;DHT22;47555;51.038;6.280;2023-01-19T06:39:16;0.80;99.90
25154;DHT22;47555;51.038;6.280;2023-01-19T06:41:42;0.80;99.90
25154;DHT22;47555;51.038;6.280;2023-01-19T06:44:08;0.80;99.90
25154;DHT22;47555;51.038;6.280;2023-01-19T06:46:33;0.90;99.90
25154;DHT22;47555;51.038;6.280;2023-01-19T06:49:00;0.90;99.90
25154;DHT22;47555;51.038;6.280;2023-01-19T06:51:25;0.90;99.90
25154;DHT22;47555;51.038;6.280;2023-01-19T06:53:51;0.90;99.90
25154;DHT22;47555;51.038;6.280;2023-01-19T06:56:17;0.80;99.90
25154;DHT22;47555;51.038;6.280;2023-01-19T06:58:42;0.90;99.90
25154;DHT22;47555;51.038;6.280;2023-01-19T07:01:08;0.80;99.90
25154;DHT22;47555;51.038;6.280;2023-01-19T07:03:35;0.80;99.90
25154;DHT22;47555;51.038;6.280;2023-01-19T07:06:02;0.80;99.90
25154;DHT22;47555;51.038;6.280;2023-01-19T07:08:28;0.90;99.90
25154;DHT22;47555;51.038;6.280;2023-01-19T07:11:01;0.80;99.90
25154;DHT22;47555;51.038;6.280;2023-01-19T07:13:29;0.80;99.90
25154;DHT22;47555;51.038;6.280;2023-01-19T07:15:55;0.80;99.90
25154;DHT22;47555;51.038;6.280;2023-01-19T07:18:20;0.80;99.90
25154;DHT22;47555;51.038;6.280;2023-01-19T07:20:46;0.80;99.90
25154;DHT22;47555;51.038;6.280;2023-01-19T07:23:14;0.80;99.90
25154;DHT22;47555;51.038;6.280;2023-01-19T07:25:40;0.90;99.90
25154;DHT22;47555;51.038;6.280;2023-01-19T07:28:05;0.90;99.90
25154;DHT22;47555;51.038;6.280;2023-01-19T07:30:31;0.90;99.90
25154;DHT22;47555;51.038;6.280;2023-01-19T07:32:57;0.90;99.90
25154;DHT22;47555;51.038;6.280;2023-01-19T07:35:23;0.90;99.90
25154;DHT22;47555;51.038;6.280;2023-01-19T07:37:49;0.90;99.90
25154;DHT22;47555;51.038;6.280;2023-01-19T07:40:15;0.90;99.90
25154;DHT22;47555;51.038;6.280;2023-01-19T07:42:48;1.00;99.90
25154;DHT22;47555;51.038;6.280;2023-01-19T07:45:19;1.00;99.90
25154;DHT22;47555;51.038;6.280;2023-01-19T07:47:46;1.00;99.90
25154;DHT22;47555;51.038;6.280;2023-01-19T07:50:16;1.00;99.90
25154;DHT22;47555;51.038;6.280;2023-01-19T07:52:42;1.00;99.90
25154;DHT22;47555;51.038;6.280;2023-01-19T07:55:08;1.00;99.90
25154;DHT22;47555;51.038;6.280;2023-01-19T07:57:34;1.00;99.90
25154;DHT22;47555;51.038;6.280;2023-01-19T08:00:00;1.10;99.90
25154;DHT22;47555;51.038;6.280;2023-01-19T08:02:26;1.10;99.90
25154;DHT22;47555;51.038;6.280;2023-01-19T08:04:52;1.10;99.90
25154;DHT22;47555;51.038;6.280;2023-01-19T08:07:17;1.10;99.90
25154;DHT22;47555;51.038;6.280;2023-01-19T08:09:43;1.10;99.90
25154;DHT22;47555;51.038;6.280;2023-01-19T08:12:08;1.10;99.90
25154;DHT22;47555;51.038;6.280;2023-01-19T08:14:34;1.10;99.90
25154;DHT22;47555;51.038;6.280;2023-01-19T08:17:00;1.20;99.90
25154;DHT22;47555;51.038;6.280;2023-01-19T08:19:26;1.20;99.90
25154;DHT22;47555;51.038;6.280;2023-01-19T08:21:52;1.20;99.90
25154;DHT22;47555;51.038;6.280;2023-01-19T08:24:19;1.20;99.90
25154;DHT22;47555;51.038;6.280;2023-01-19T08:26:58;1.20;99.90
25154;DHT22;47555;51.038;6.280;2023-01-19T08:29:23;1.20;99.90
25154;DHT22;47555;51.038;6.280;2023-01-19T08:31:49;1.30;99.90
25154;DHT22;47555;51.038;6.280;2023-01-19T08:34:14;1.30;99.90
25154;DHT22;47555;51.038;6.280;2023-01-19T08:36:40;1.30;99.90
25154;DHT22;47555;51.038;6.280;2023-01-19T08:39:06;1.30;99.90
25154;DHT22;47555;51.038;6.280;2023-01-19T08:41:32;1.30;99.90
25154;DHT22;47555;51.038;6.280;2023-01-19T08:43:58;1.30;99.90
25154;DHT22;47555;51.038;6.280;2023-01-19T08:46:23;1.40;99.90
25154;DHT22;47555;51.038;6.280;2023-01-19T08:48:49;1.40;99.90
25154;DHT22;47555;51.038;6.280;2023-01-19T08:51:15;1.40;99.90
25154;DHT22;47555;51.038;6.280;2023-01-19T08:53:41;1.40;99.90
25154;DHT22;47555;51.038;6.280;2023-01-19T08:56:08;1.50;99.90
25154;DHT22;47555;51.038;6.280;2023-01-19T08:58:38;1.50;99.90
25154;DHT22;47555;51.038;6.280;2023-01-19T09:01:05;1.50;99.90
25154;DHT22;47555;51.038;6.280;2023-01-19T09:03:30;1.60;99.90
25154;DHT22;47555;51.038;6.280;2023-01-19T09:05:56;1.60;99.90
25154;DHT22;47555;51.038;6.280;2023-01-19T09:08:22;1.60;99.90
25154;DHT22;47555;51.038;6.280;2023-01-19T09:10:49;1.60;99.90
25154;DHT22;47555;51.038;6.280;2023-01-19T09:13:15;1.60;99.90
25154;DHT22;47555;51.038;6.280;2023-01-19T09:15:41;1.60;99.90
25154;DHT22;47555;51.038;6.280;2023-01-19T09:18:10;1.60;99.90
25154;DHT22;47555;51.038;6.280;2023-01-19T09:20:41;1.60;99.90
25154;DHT22;47555;51.038;6.280;2023-01-19T09:23:10;1.60;99.90
25154;DHT22;47555;51.038;6.280;2023-01-19T09:25:37;1.60;99.90
25154;DHT22;47555;51.038;6.280;2023-01-19T09:28:04;1.60;99.90
25154;DHT22;47555;51.038;6.280;2023-01-19T09:30:30;1.70;99.90
25154;DHT22;47555;51.038;6.280;2023-01-19T09:33:01;1.70;99.90
25154;DHT22;47555;51.038;6.280;2023-01-19T09:35:28;1.60;99.90
25154;DHT22;47555;51.038;6.280;2023-01-19T09:37:55;1.80;99.90
25154;DHT22;47555;51.038;6.280;2023-01-19T09:40:21;1.70;99.90
25154;DHT22;47555;51.038;6.280;2023-01-19T09:42:54;1.70;99.90
25154;DHT22;47555;51.038;6.280;2023-01-19T09:45:25;1.70;99.90
25154;DHT22;47555;51.038;6.280;2023-01-19T09:47:52;1.80;99.90
25154;DHT22;47555;51.038;6.280;2023-01-19T09:50:34;1.80;99.90
25154;DHT22;47555;51.038;6.280;2023-01-19T09:53:09;1.90;99.90
25154;DHT22;47555;51.038;6.280;2023-01-19T09:55:40;1.80;99.90
25154;DHT22;47555;51.038;6.280;2023-01-19T09:58:16;1.90;99.90
25154;DHT22;47555;51.038;6.280;2023-01-19T10:00:46;1.90;99.90
25154;DHT22;47555;51.038;6.280;2023-01-19T10:03:15;1.90;99.90
25154;DHT22;47555;51.038;6.280;2023-01-19T10:05:54;2.00;99.90
25154;DHT22;47555;51.038;6.280;2023-01-19T10:08:54;2.10;99.90
25154;DHT22;47555;51.038;6.280;2023-01-19T10:11:35;2.20;99.90
25154;DHT22;47555;51.038;6.280;2023-01-19T10:14:04;2.20;99.90
25154;DHT22;47555;51.038;6.280;2023-01-19T10:16:46;2.30;99.90
25154;DHT22;47555;51.038;6.280;2023-01-19T10:19:32;2.30;99.90
25154;DHT22;47555;51.038;6.280;2023-01-19T10:22:17;2.30;99.90
25154;DHT22;47555;51.038;6.280;2023-01-19T10:24:45;2.30;99.90
25154;DHT22;47555;51.038;6.280;2023-01-19T10:27:19;2.40;99.90
25154;DHT22;47555;51.038;6.280;2023-01-19T10:29:46;2.40;99.90
25154;DHT22;47555;51.038;6.280;2023-01-19T10:32:29;2.40;99.90
25154;DHT22;47555;51.038;6.280;2023-01-19T10:34:57;2.40;99.90
25154;DHT22;47555;51.038;6.280;2023-01-19T10:39:59;2.40;99.90
25154;DHT22;47555;51.038;6.280;2023-01-19T10:42:28;2.50;99.90
25154;DHT22;47555;51.038;6.280;2023-01-19T10:44:55;2.50;99.90
25154;DHT22;47555;51.038;6.280;2023-01-19T10:47:32;2.50;99.90
25154;DHT22;47555;51.038;6.280;2023-01-19T10:49:58;2.50;99.90
25154;DHT22;47555;51.038;6.280;2023-01-19T10:52:34;2.50;99.90
25154;DHT22;47555;51.038;6.280;2023-01-19T10:55:02;2.60;99.90
25154;DHT22;47555;51.038;6.280;2023-01-19T10:57:31;2.60;99.90
25154;DHT22;47555;51.038;6.280;2023-01-19T10:59:57;2.70;99.90
25154;DHT22;47555;51.038;6.280;2023-01-19T11:02:26;2.70;99.90
25154;DHT22;47555;51.038;6.280;2023-01-19T11:04:54;2.70;99.90
25154;DHT22;47555;51.038;6.280;2023-01-19T11:07:28;2.70;99.90
25154;DHT22;47555;51.038;6.280;2023-01-19T11:10:18;2.70;99.90
25154;DHT22;47555;51.038;6.280;2023-01-19T11:13:03;2.80;99.90
25154;DHT22;47555;51.038;6.280;2023-01-19T11:15:43;2.80;99.90
25154;DHT22;47555;51.038;6.280;2023-01-19T11:18:32;2.90;99.90
25154;DHT22;47555;51.038;6.280;2023-01-19T11:21:13;2.80;99.90
25154;DHT22;47555;51.038;6.280;2023-01-19T11:23:43;2.80;99.90
25154;DHT22;47555;51.038;6.280;2023-01-19T11:26:33;2.80;99.90
25154;DHT22;47555;51.038;6.280;2023-01-19T11:29:01;2.80;99.90
25154;DHT22;47555;51.038;6.280;2023-01-19T11:33:55;2.80;99.90
25154;DHT22;47555;51.038;6.280;2023-01-19T11:36:28;2.80;99.90
25154;DHT22;47555;51.038;6.280;2023-01-19T11:39:00;2.80;99.90
25154;DHT22;47555;51.038;6.280;2023-01-19T11:41:38;2.90;99.90
25154;DHT22;47555;51.038;6.280;2023-01-19T11:44:25;2.90;99.90
25154;DHT22;47555;51.038;6.280;2023-01-19T11:46:58;2.90;99.90
25154;DHT22;47555;51.038;6.280;2023-01-19T11:52:06;2.80;99.90
25154;DHT22;47555;51.038;6.280;2023-01-19T11:54:45;2.80;99.90
25154;DHT22;47555;51.038;6.280;2023-01-19T11:57:15;2.80;99.90
25154;DHT22;47555;51.038;6.280;2023-01-19T11:59:41;2.80;99.90
25154;DHT22;47555;51.038;6.280;2023-01-19T12:02:27;2.80;99.90
25154;DHT22;47555;51.038;6.280;2023-01-19T12:04:58;2.80;99.90
25154;DHT22;47555;51.038;6.280;2023-01-19T12:07:29;2.80;99.90
25154;DHT22;47555;51.038;6.280;2023-01-19T12:10:46;2.80;99.90
25154;DHT22;47555;51.038;6.280;2023-01-19T12:12:47;2.90;99.90
25154;DHT22;47555;51.038;6.280;2023-01-19T12:15:30;3.00;99.90
25154;DHT22;47555;51.038;6.280;2023-01-19T12:17:59;3.10;99.90
25154;DHT22;47555;51.038;6.280;2023-01-19T12:20:35;3.20;99.90
25154;DHT22;47555;51.038;6.280;2023-01-19T12:28:32;3.40;99.90
25154;DHT22;47555;51.038;6.280;2023-01-19T12:30:59;3.40;99.90
25154;DHT22;47555;51.038;6.280;2023-01-19T12:35:58;3.30;99.90
25154;DHT22;47555;51.038;6.280;2023-01-19T12:38:54;3.30;99.90
25154;DHT22;47555;51.038;6.280;2023-01-19T12:41:30;3.30;99.90
25154;DHT22;47555;51.038;6.280;2023-01-19T12:49:09;3.40;99.90
25154;DHT22;47555;51.038;6.280;2023-01-19T12:51:36;3.40;99.90
25154;DHT22;47555;51.038;6.280;2023-01-19T12:54:07;3.40;99.90
25154;DHT22;47555;51.038;6.280;2023-01-19T12:56:43;3.40;99.90
25154;DHT22;47555;51.038;6.280;2023-01-19T12:59:22;3.40;99.90
25154;DHT22;47555;51.038;6.280;2023-01-19T13:15:52;3.00;99.90
25154;DHT22;47555;51.038;6.280;2023-01-19T13:18:27;3.00;99.90
25154;DHT22;47555;51.038;6.280;2023-01-19T13:21:07;2.90;99.90
25154;DHT22;47555;51.038;6.280;2023-01-19T13:26:22;2.80;99.90
25154;DHT22;47555;51.038;6.280;2023-01-19T13:28:55;2.70;99.90
25154;DHT22;47555;51.038;6.280;2023-01-19T13:31:22;2.60;99.90
25154;DHT22;47555;51.038;6.280;2023-01-19T13:33:53;2.50;99.90
25154;DHT22;47555;51.038;6.280;2023-01-19T13:36:40;2.50;99.90
25154;DHT22;47555;51.038;6.280;2023-01-19T13:39:36;2.40;99.90
25154;DHT22;47555;51.038;6.280;2023-01-19T13:42:04;2.30;99.90
25154;DHT22;47555;51.038;6.280;2023-01-19T13:44:34;2.30;99.90
25154;DHT22;47555;51.038;6.280;2023-01-19T13:47:06;2.40;99.90
25154;DHT22;47555;51.038;6.280;2023-01-19T13:49:38;2.40;99.90
25154;DHT22;47555;51.038;6.280;2023-01-19T13:52:13;2.40;99.90
25154;DHT22;47555;51.038;6.280;2023-01-19T14:00:03;2.60;99.90
25154;DHT22;47555;51.038;6.280;2023-01-19T14:02:29;2.60;99.90
25154;DHT22;47555;51.038;6.280;2023-01-19T14:04:55;2.70;99.90
25154;DHT22;47555;51.038;6.280;2023-01-19T14:07:22;2.70;99.90
25154;DHT22;47555;51.038;6.280;2023-01-19T14:10:20;2.80;99.90
25154;DHT22;47555;51.038;6.280;2023-01-19T14:12:45;2.80;99.90
25154;DHT22;47555;51.038;6.280;2023-01-19T14:15:21;2.80;99.90
25154;DHT22;47555;51.038;6.280;2023-01-19T14:20:53;2.80;99.90
25154;DHT22;47555;51.038;6.280;2023-01-19T14:26:00;2.80;99.90
25154;DHT22;47555;51.038;6.280;2023-01-19T14:28:27;2.80;99.90
25154;DHT22;47555;51.038;6.280;2023-01-19T14:33:47;2.80;99.90
25154;DHT22;47555;51.038;6.280;2023-01-19T14:38:43;2.80;99.90
25154;DHT22;47555;51.038;6.280;2023-01-19T14:41:09;2.80;99.90
25154;DHT22;47555;51.038;6.280;2023-01-19T14:43:35;2.70;99.90
25154;DHT22;47555;51.038;6.280;2023-01-19T14:46:01;2.70;99.90
25154;DHT22;47555;51.038;6.280;2023-01-19T14:48:27;2.70;99.90
25154;DHT22;47555;51.038;6.280;2023-01-19T14:51:00;2.70;99.90
25154;DHT22;47555;51.038;6.280;2023-01-19T14:53:31;2.60;99.90
25154;DHT22;47555;51.038;6.280;2023-01-19T14:56:03;2.70;99.90
25154;DHT22;47555;51.038;6.280;2023-01-19T14:58:31;2.70;99.90
25154;DHT22;47555;51.038;6.280;2023-01-19T15:00:57;2.60;99.90
25154;DHT22;47555;51.038;6.280;2023-01-19T15:03:24;2.70;99.90
25154;DHT22;47555;51.038;6.280;2023-01-19T15:05:50;2.60;99.90
25154;DHT22;47555;51.038;6.280;2023-01-19T15:08:19;2.60;99.90
25154;DHT22;47555;51.038;6.280;2023-01-19T15:10:47;2.60;99.90
25154;DHT22;47555;51.038;6.280;2023-01-19T15:13:24;2.60;99.90
25154;DHT22;47555;51.038;6.280;2023-01-19T15:15:51;2.60;99.90
25154;DHT22;47555;51.038;6.280;2023-01-19T15:18:23;2.60;99.90
25154;DHT22;47555;51.038;6.280;2023-01-19T15:20:49;2.60;99.90
25154;DHT22;47555;51.038;6.280;2023-01-19T15:23:15;2.60;99.90
25154;DHT22;47555;51.038;6.280;2023-01-19T15:25:40;2.60;99.90
25154;DHT22;47555;51.038;6.280;2023-01-19T15:28:10;2.50;99.90
25154;DHT22;47555;51.038;6.280;2023-01-19T15:30:37;2.60;99.90
25154;DHT22;47555;51.038;6.280;2023-01-19T15:33:03;2.60;99.90
25154;DHT22;47555;51.038;6.280;2023-01-19T15:35:28;2.60;99.90
25154;DHT22;47555;51.038;6.280;2023-01-19T15:37:54;2.60;99.90
25154;DHT22;47555;51.038;6.280;2023-01-19T15:40:20;2.60;99.90
25154;DHT22;47555;51.038;6.280;2023-01-19T15:42:47;2.60;99.90
25154;DHT22;47555;51.038;6.280;2023-01-19T15:47:50;2.60;99.90
25154;DHT22;47555;51.038;6.280;2023-01-19T15:50:16;2.60;99.90
25154;DHT22;47555;51.038;6.280;2023-01-19T15:52:41;2.60;99.90
25154;DHT22;47555;51.038;6.280;2023-01-19T15:55:10;2.60;99.90
25154;DHT22;47555;51.038;6.280;2023-01-19T15:57:36;2.60;99.90
25154;DHT22;47555;51.038;6.280;2023-01-19T16:00:03;2.60;99.90
25154;DHT22;47555;51.038;6.280;2023-01-19T16:02:29;2.50;99.90
25154;DHT22;47555;51.038;6.280;2023-01-19T16:04:54;2.50;99.90
25154;DHT22;47555;51.038;6.280;2023-01-19T16:07:20;2.50;99.90
25154;DHT22;47555;51.038;6.280;2023-01-19T16:09:45;2.50;99.90
25154;DHT22;47555;51.038;6.280;2023-01-19T16:12:11;2.50;99.90
25154;DHT22;47555;51.038;6.280;2023-01-19T16:14:36;2.50;99.90
25154;DHT22;47555;51.038;6.280;2023-01-19T16:17:02;2.50;99.90
25154;DHT22;47555;51.038;6.280;2023-01-19T16:19:27;2.50;99.90
25154;DHT22;47555;51.038;6.280;2023-01-19T16:21:53;2.50;99.90
25154;DHT22;47555;51.038;6.280;2023-01-19T16:24:18;2.50;99.90
25154;DHT22;47555;51.038;6.280;2023-01-19T16:26:44;2.50;99.90
25154;DHT22;47555;51.038;6.280;2023-01-19T16:29:10;2.50;99.90
25154;DHT22;47555;51.038;6.280;2023-01-19T16:31:40;2.40;99.90
25154;DHT22;47555;51.038;6.280;2023-01-19T16:34:06;2.50;99.90
25154;DHT22;47555;51.038;6.280;2023-01-19T16:36:33;2.40;99.90
25154;DHT22;47555;51.038;6.280;2023-01-19T16:39:01;2.40;99.90
25154;DHT22;47555;51.038;6.280;2023-01-19T16:41:27;2.40;99.90
25154;DHT22;47555;51.038;6.280;2023-01-19T16:43:54;2.40;99.90
25154;DHT22;47555;51.038;6.280;2023-01-19T16:46:25;2.40;99.90
25154;DHT22;47555;51.038;6.280;2023-01-19T16:48:52;2.40;99.90
25154;DHT22;47555;51.038;6.280;2023-01-19T16:51:18;2.40;99.90
25154;DHT22;47555;51.038;6.280;2023-01-19T16:53:44;2.40;99.90
25154;DHT22;47555;51.038;6.280;2023-01-19T16:56:12;2.40;99.90
25154;DHT22;47555;51.038;6.280;2023-01-19T16:58:39;2.30;99.90
25154;DHT22;47555;51.038;6.280;2023-01-19T17:01:09;2.30;99.90
25154;DHT22;47555;51.038;6.280;2023-01-19T17:03:35;2.30;99.90
25154;DHT22;47555;51.038;6.280;2023-01-19T17:06:03;2.30;99.90
25154;DHT22;47555;51.038;6.280;2023-01-19T17:08:29;2.30;99.90